Jamestown Regional Airport Jamestown US
ICAO: KJMS
IATA: JMS
Category: Medium
Scheduled Services: Yes

Elevation: 1500 ft
TransAlt. 18000 ft.

Airport Communications:
ASOS:118.425
MINNEAPOLIS CNTR:124.2
GRAND FORKS RDO:122.2
CTAF/UNICOM:123

KJMS Zoom In..

Runways:

(A) RW 04 length 5750 ft width 75 ft
---- / hdg 37

(B) RW 13 length 6502 ft width 100 ft
---- / hdg 127

(C) RW 22 length 5750 ft width 75 ft
---- / hdg 217

(D) RW 31 length 6502 ft width 100 ft
ILS 109.30 / hdg 307

Location; KJMS
Day. 24 / Time. 01.56 Zulu
* Altimeter: 30.14
* Temperature: -07° c. -19.4°f.
* Wind from: 320° Speed 11 kn.
Dewpoint: -08° c.
Visibility: 10 Statute Miles.
Clouds: Overcast 800 ft.

KJMS 240156Z AUTO 32011KT 10SM OVC008 M07/M08 A3014 RMK AO2 SLP235 T10671078


Wind From 320°
Speed 11 kn.

YouTube Music Video
 
jpsmedia.com for Web Design  worldairports.se 2018   terms of use